Stations météo

Publicité
Lentran, Grande-Bretagne (99125): Température de l'air & dewpoint: 20.09.2017 12:00:00 - 26.09.2017 12:00:00 (BST)Lentran, Grande-Bretagne (99125): Quantités de précipitations: 20.09.2017 12:00:00 - 26.09.2017 12:00:00 (BST)
Date & Time tt [°C] td [°C] rr [mm]
26.09.2017 12:00:00 - - -
26.09.2017 11:00:00 11,3 11,3 0,0
26.09.2017 10:00:00 10,6 10,6 0,0
26.09.2017 09:00:00 8,9 8,9 0,0
26.09.2017 08:00:00 8,8 8,8 0,0
26.09.2017 07:00:00 7,5 7,5 0,0
26.09.2017 06:00:00 7,9 7,9 0,0
26.09.2017 05:00:00 7,9 7,9 0,0
26.09.2017 04:00:00 9,0 9,0 0,2
26.09.2017 03:00:00 8,5 8,5 0,0
26.09.2017 02:00:00 8,9 8,9 0,0
26.09.2017 01:00:00 8,8 8,8 0,0
26.09.2017 00:00:00 9,6 9,6 0,0
25.09.2017 23:00:00 9,6 9,6 0,0
25.09.2017 22:00:00 9,9 9,9 0,0
25.09.2017 21:00:00 10,5 10,4 0,0
25.09.2017 20:00:00 11,5 11,2 0,0
25.09.2017 19:00:00 14,1 13,6 0,0
25.09.2017 18:00:00 14,5 14,0 0,0
25.09.2017 17:00:00 14,4 13,7 0,0
25.09.2017 16:00:00 15,6 13,4 0,0
25.09.2017 15:00:00 15,7 13,8 0,0
25.09.2017 14:00:00 14,1 13,6 0,0
25.09.2017 13:00:00 13,3 13,3 0,0
25.09.2017 12:00:00 13,0 13,0 0,0
25.09.2017 11:00:00 12,5 12,5 0,2
25.09.2017 10:00:00 12,1 12,1 0,0
25.09.2017 09:00:00 11,9 11,9 0,0
25.09.2017 08:00:00 11,8 11,8 0,0
25.09.2017 07:00:00 11,7 11,7 0,2
25.09.2017 06:00:00 11,7 11,7 1,6
25.09.2017 05:00:00 11,7 11,7 0,0
25.09.2017 04:00:00 11,6 11,6 1,4
25.09.2017 03:00:00 11,6 11,6 3,0
25.09.2017 02:00:00 11,5 11,5 0,6
25.09.2017 01:00:00 11,5 11,5 0,0
25.09.2017 00:00:00 11,7 11,7 0,0
24.09.2017 23:00:00 11,8 11,8 0,2
24.09.2017 22:00:00 11,8 11,8 0,0
24.09.2017 21:00:00 11,9 11,9 0,0
24.09.2017 20:00:00 12,0 11,9 0,4
24.09.2017 19:00:00 12,3 11,9 1,0
24.09.2017 18:00:00 12,8 12,3 1,2
24.09.2017 17:00:00 13,9 12,0 0,2
24.09.2017 16:00:00 14,6 12,2 0,0
24.09.2017 15:00:00 14,1 12,2 0,0
24.09.2017 14:00:00 14,4 12,3 0,2
24.09.2017 13:00:00 15,0 12,4 0,0
24.09.2017 12:00:00 13,7 12,2 0,6
24.09.2017 11:00:00 13,6 11,9 0,0
24.09.2017 10:00:00 13,1 11,3 0,2
24.09.2017 09:00:00 13,2 11,2 0,0
24.09.2017 08:00:00 13,2 10,9 0,0
24.09.2017 07:00:00 11,3 9,7 0,0
24.09.2017 06:00:00 12,2 9,5 0,0
24.09.2017 05:00:00 13,1 9,1 0,0
24.09.2017 04:00:00 14,1 9,0 0,0
24.09.2017 03:00:00 14,6 9,2 0,0
24.09.2017 02:00:00 14,4 8,2 0,0
24.09.2017 01:00:00 14,7 7,8 0,0
24.09.2017 00:00:00 15,1 7,0 0,0
23.09.2017 23:00:00 15,2 7,0 0,0
23.09.2017 22:00:00 15,2 7,7 0,0
23.09.2017 21:00:00 16,0 12,0 0,0
23.09.2017 20:00:00 15,3 11,9 0,0
23.09.2017 19:00:00 15,7 11,9 0,0
23.09.2017 18:00:00 16,2 11,9 0,0
23.09.2017 17:00:00 16,3 11,8 0,0
23.09.2017 16:00:00 16,1 11,2 0,0
23.09.2017 15:00:00 17,3 11,5 0,0
23.09.2017 14:00:00 17,4 10,7 0,0
23.09.2017 13:00:00 18,1 11,0 0,0
23.09.2017 12:00:00 17,2 10,7 0,0
23.09.2017 11:00:00 15,7 10,3 0,0
23.09.2017 10:00:00 13,3 11,4 0,0
23.09.2017 09:00:00 9,0 8,9 0,0
23.09.2017 08:00:00 7,9 7,9 0,0
23.09.2017 07:00:00 7,0 6,9 0,0
23.09.2017 06:00:00 7,6 7,2 0,0
23.09.2017 05:00:00 8,4 7,6 0,0
23.09.2017 04:00:00 8,6 8,3 0,0
23.09.2017 03:00:00 8,8 8,3 0,0
23.09.2017 02:00:00 9,2 8,9 0,0
23.09.2017 01:00:00 9,1 8,8 0,0
23.09.2017 00:00:00 9,1 8,8 0,0
22.09.2017 23:00:00 8,7 8,4 0,0
22.09.2017 22:00:00 9,7 8,4 0,0
22.09.2017 21:00:00 9,9 8,3 0,0
22.09.2017 20:00:00 8,9 7,9 0,0
22.09.2017 19:00:00 11,5 8,4 0,0
22.09.2017 18:00:00 13,1 8,6 0,0
22.09.2017 17:00:00 12,8 8,3 0,0
22.09.2017 16:00:00 12,9 9,4 0,0
22.09.2017 15:00:00 12,3 8,1 0,0
22.09.2017 14:00:00 13,2 9,6 0,0
22.09.2017 13:00:00 12,2 9,6 0,0
22.09.2017 12:00:00 11,2 9,3 0,0
22.09.2017 11:00:00 10,3 9,1 0,0
22.09.2017 10:00:00 5,6 5,3 0,0
22.09.2017 09:00:00 5,2 5,2 0,0
22.09.2017 08:00:00 4,6 4,6 0,0
22.09.2017 07:00:00 4,1 4,1 0,2
22.09.2017 06:00:00 3,6 3,6 0,0
22.09.2017 05:00:00 3,8 3,8 0,0
22.09.2017 04:00:00 4,0 4,0 0,0
22.09.2017 03:00:00 4,2 4,1 0,0
22.09.2017 02:00:00 5,1 5,1 0,0
22.09.2017 01:00:00 5,8 5,7 0,0
22.09.2017 00:00:00 6,0 5,6 0,0
21.09.2017 23:00:00 5,9 5,9 0,0
21.09.2017 22:00:00 6,7 6,6 0,0
21.09.2017 21:00:00 7,2 7,2 0,0
21.09.2017 20:00:00 7,0 7,0 0,0
21.09.2017 19:00:00 8,7 8,5 0,0
21.09.2017 18:00:00 9,8 9,3 0,0
21.09.2017 17:00:00 11,3 9,6 0,0
21.09.2017 16:00:00 11,2 9,7 0,0
21.09.2017 15:00:00 11,0 10,3 0,2
21.09.2017 14:00:00 10,7 9,4 0,4
21.09.2017 13:00:00 10,1 9,0 0,6
21.09.2017 12:00:00 9,8 9,2 0,2
21.09.2017 11:00:00 9,7 9,1 0,2
21.09.2017 10:00:00 9,1 9,1 0,2
21.09.2017 09:00:00 8,7 8,7 1,4
21.09.2017 08:00:00 8,6 8,6 1,0
21.09.2017 07:00:00 8,7 8,7 0,4
21.09.2017 06:00:00 8,8 8,8 0,0
21.09.2017 05:00:00 8,8 8,8 0,6
21.09.2017 04:00:00 9,1 9,1 1,0
21.09.2017 03:00:00 9,5 9,5 0,6
21.09.2017 02:00:00 9,7 9,7 1,4
21.09.2017 01:00:00 9,8 9,8 1,6
21.09.2017 00:00:00 10,2 10,2 1,2
20.09.2017 23:00:00 10,5 10,5 1,4
20.09.2017 22:00:00 10,6 10,6 3,8
20.09.2017 21:00:00 10,7 10,6 4,4
20.09.2017 20:00:00 11,0 10,7 2,0
20.09.2017 19:00:00 11,7 11,1 1,4
20.09.2017 18:00:00 12,2 11,7 1,2
20.09.2017 17:00:00 12,6 12,0 0,6
20.09.2017 16:00:00 13,2 12,2 0,6
20.09.2017 15:00:00 15,5 12,1 0,0
20.09.2017 14:00:00 17,4 13,5 0,0
20.09.2017 13:00:00 16,2 13,1 0,0
20.09.2017 12:00:00 15,9 13,7 0,0

tt = Température de l'air
td = dewpoint
rr = Quantités de précipitations

stations d'obs. à proximité